sensor_id;sensor_type;location;lat;lon;timestamp;P1;durP1;ratioP1;P2;durP2;ratioP2
63217;SDS011;49314;48.278;16.378;2023-04-25T00:01:56;5.63;;;5.32;;
63217;SDS011;49314;48.278;16.378;2023-04-25T00:04:22;5.95;;;5.65;;
63217;SDS011;49314;48.278;16.378;2023-04-25T00:06:47;4.88;;;4.68;;
63217;SDS011;49314;48.278;16.378;2023-04-25T00:09:13;5.97;;;5.70;;
63217;SDS011;49314;48.278;16.378;2023-04-25T00:11:38;6.68;;;6.32;;
63217;SDS011;49314;48.278;16.378;2023-04-25T00:14:04;6.95;;;6.60;;
63217;SDS011;49314;48.278;16.378;2023-04-25T00:16:29;5.38;;;5.10;;
63217;SDS011;49314;48.278;16.378;2023-04-25T00:18:58;6.75;;;6.45;;
63217;SDS011;49314;48.278;16.378;2023-04-25T00:21:23;7.03;;;6.72;;
63217;SDS011;49314;48.278;16.378;2023-04-25T00:23:49;7.47;;;7.07;;
63217;SDS011;49314;48.278;16.378;2023-04-25T00:26:14;8.48;;;7.97;;
63217;SDS011;49314;48.278;16.378;2023-04-25T00:28:40;5.97;;;5.68;;
63217;SDS011;49314;48.278;16.378;2023-04-25T00:31:05;4.25;;;3.95;;
63217;SDS011;49314;48.278;16.378;2023-04-25T00:33:30;5.63;;;5.32;;
63217;SDS011;49314;48.278;16.378;2023-04-25T00:35:56;6.65;;;6.35;;
63217;SDS011;49314;48.278;16.378;2023-04-25T00:38:21;7.05;;;6.65;;
63217;SDS011;49314;48.278;16.378;2023-04-25T00:40:46;5.78;;;5.50;;
63217;SDS011;49314;48.278;16.378;2023-04-25T00:43:12;5.88;;;5.47;;
63217;SDS011;49314;48.278;16.378;2023-04-25T00:45:37;6.15;;;5.93;;
63217;SDS011;49314;48.278;16.378;2023-04-25T00:48:03;5.35;;;5.15;;
63217;SDS011;49314;48.278;16.378;2023-04-25T00:50:29;8.55;;;8.13;;
63217;SDS011;49314;48.278;16.378;2023-04-25T00:52:55;6.72;;;6.40;;
63217;SDS011;49314;48.278;16.378;2023-04-25T00:55:20;5.57;;;5.28;;
63217;SDS011;49314;48.278;16.378;2023-04-25T00:57:45;6.78;;;6.53;;
63217;SDS011;49314;48.278;16.378;2023-04-25T01:00:12;6.13;;;5.82;;
63217;SDS011;49314;48.278;16.378;2023-04-25T01:02:39;6.38;;;6.07;;
63217;SDS011;49314;48.278;16.378;2023-04-25T01:05:04;6.90;;;6.60;;
63217;SDS011;49314;48.278;16.378;2023-04-25T01:07:30;6.47;;;6.13;;
63217;SDS011;49314;48.278;16.378;2023-04-25T01:09:55;7.43;;;7.18;;
63217;SDS011;49314;48.278;16.378;2023-04-25T01:12:20;6.30;;;5.95;;
63217;SDS011;49314;48.278;16.378;2023-04-25T01:14:46;7.72;;;7.28;;
63217;SDS011;49314;48.278;16.378;2023-04-25T01:17:11;5.47;;;5.18;;
63217;SDS011;49314;48.278;16.378;2023-04-25T01:19:37;5.57;;;5.28;;
63217;SDS011;49314;48.278;16.378;2023-04-25T01:22:02;6.85;;;6.50;;
63217;SDS011;49314;48.278;16.378;2023-04-25T01:24:28;7.60;;;7.25;;
63217;SDS011;49314;48.278;16.378;2023-04-25T01:26:54;8.43;;;8.02;;
63217;SDS011;49314;48.278;16.378;2023-04-25T01:29:21;6.35;;;6.05;;
63217;SDS011;49314;48.278;16.378;2023-04-25T01:31:47;7.70;;;7.32;;
63217;SDS011;49314;48.278;16.378;2023-04-25T01:34:12;6.57;;;6.28;;
63217;SDS011;49314;48.278;16.378;2023-04-25T01:36:38;6.75;;;6.45;;
63217;SDS011;49314;48.278;16.378;2023-04-25T01:39:03;7.85;;;7.47;;
63217;SDS011;49314;48.278;16.378;2023-04-25T01:41:28;6.35;;;6.05;;
63217;SDS011;49314;48.278;16.378;2023-04-25T01:43:54;8.63;;;8.23;;
63217;SDS011;49314;48.278;16.378;2023-04-25T01:46:19;6.47;;;6.18;;
63217;SDS011;49314;48.278;16.378;2023-04-25T01:48:44;6.03;;;5.60;;
63217;SDS011;49314;48.278;16.378;2023-04-25T01:51:10;7.53;;;7.13;;
63217;SDS011;49314;48.278;16.378;2023-04-25T01:53:36;4.88;;;4.57;;
63217;SDS011;49314;48.278;16.378;2023-04-25T01:56:01;8.02;;;7.63;;
63217;SDS011;49314;48.278;16.378;2023-04-25T01:58:27;6.95;;;6.55;;
63217;SDS011;49314;48.278;16.378;2023-04-25T02:00:52;7.43;;;7.00;;
63217;SDS011;49314;48.278;16.378;2023-04-25T02:03:17;6.57;;;6.28;;
63217;SDS011;49314;48.278;16.378;2023-04-25T02:05:42;5.80;;;5.50;;
63217;SDS011;49314;48.278;16.378;2023-04-25T02:08:08;6.38;;;6.07;;
63217;SDS011;49314;48.278;16.378;2023-04-25T02:10:34;7.28;;;6.78;;
63217;SDS011;49314;48.278;16.378;2023-04-25T02:13:00;7.28;;;6.97;;
63217;SDS011;49314;48.278;16.378;2023-04-25T02:15:26;5.28;;;5.00;;
63217;SDS011;49314;48.278;16.378;2023-04-25T02:17:51;6.90;;;5.90;;
63217;SDS011;49314;48.278;16.378;2023-04-25T02:20:22;7.07;;;6.63;;
63217;SDS011;49314;48.278;16.378;2023-04-25T02:22:48;7.63;;;7.30;;
63217;SDS011;49314;48.278;16.378;2023-04-25T02:25:13;6.10;;;5.70;;
63217;SDS011;49314;48.278;16.378;2023-04-25T02:27:39;8.15;;;7.65;;
63217;SDS011;49314;48.278;16.378;2023-04-25T02:30:04;6.35;;;6.05;;
63217;SDS011;49314;48.278;16.378;2023-04-25T02:32:30;5.53;;;5.22;;
63217;SDS011;49314;48.278;16.378;2023-04-25T02:34:55;6.72;;;6.43;;
63217;SDS011;49314;48.278;16.378;2023-04-25T02:37:23;6.57;;;6.25;;
63217;SDS011;49314;48.278;16.378;2023-04-25T02:39:48;6.43;;;5.82;;
63217;SDS011;49314;48.278;16.378;2023-04-25T02:42:14;6.18;;;5.78;;
63217;SDS011;49314;48.278;16.378;2023-04-25T02:44:39;7.13;;;6.72;;
63217;SDS011;49314;48.278;16.378;2023-04-25T02:47:04;7.20;;;6.80;;
63217;SDS011;49314;48.278;16.378;2023-04-25T02:49:29;7.07;;;6.78;;
63217;SDS011;49314;48.278;16.378;2023-04-25T02:51:55;5.38;;;5.07;;
63217;SDS011;49314;48.278;16.378;2023-04-25T02:54:20;8.68;;;8.30;;
63217;SDS011;49314;48.278;16.378;2023-04-25T02:56:46;6.22;;;5.63;;
63217;SDS011;49314;48.278;16.378;2023-04-25T02:59:11;5.93;;;5.63;;
63217;SDS011;49314;48.278;16.378;2023-04-25T03:01:37;6.55;;;6.25;;
63217;SDS011;49314;48.278;16.378;2023-04-25T03:04:02;6.20;;;5.80;;
63217;SDS011;49314;48.278;16.378;2023-04-25T03:06:27;8.32;;;7.88;;
63217;SDS011;49314;48.278;16.378;2023-04-25T03:08:52;6.40;;;6.00;;
63217;SDS011;49314;48.278;16.378;2023-04-25T03:11:18;7.28;;;6.88;;
63217;SDS011;49314;48.278;16.378;2023-04-25T03:13:45;8.13;;;7.63;;
63217;SDS011;49314;48.278;16.378;2023-04-25T03:16:10;8.57;;;8.18;;
63217;SDS011;49314;48.278;16.378;2023-04-25T03:18:35;8.20;;;7.80;;
63217;SDS011;49314;48.278;16.378;2023-04-25T03:21:01;7.68;;;7.28;;
63217;SDS011;49314;48.278;16.378;2023-04-25T03:23:26;8.45;;;7.95;;
63217;SDS011;49314;48.278;16.378;2023-04-25T03:25:51;7.80;;;7.43;;
63217;SDS011;49314;48.278;16.378;2023-04-25T03:28:16;7.95;;;7.22;;
63217;SDS011;49314;48.278;16.378;2023-04-25T03:30:42;6.50;;;6.18;;
63217;SDS011;49314;48.278;16.378;2023-04-25T03:33:07;8.00;;;7.47;;
63217;SDS011;49314;48.278;16.378;2023-04-25T03:35:32;7.68;;;6.70;;
63217;SDS011;49314;48.278;16.378;2023-04-25T03:37:57;9.27;;;8.75;;
63217;SDS011;49314;48.278;16.378;2023-04-25T03:40:23;8.73;;;8.32;;
63217;SDS011;49314;48.278;16.378;2023-04-25T03:42:48;8.13;;;7.63;;
63217;SDS011;49314;48.278;16.378;2023-04-25T03:45:13;6.43;;;5.97;;
63217;SDS011;49314;48.278;16.378;2023-04-25T03:47:38;6.82;;;6.53;;
63217;SDS011;49314;48.278;16.378;2023-04-25T03:50:04;7.93;;;7.53;;
63217;SDS011;49314;48.278;16.378;2023-04-25T03:52:29;6.82;;;6.43;;
63217;SDS011;49314;48.278;16.378;2023-04-25T03:54:54;8.63;;;8.15;;
63217;SDS011;49314;48.278;16.378;2023-04-25T03:57:20;8.85;;;8.35;;
63217;SDS011;49314;48.278;16.378;2023-04-25T03:59:45;8.43;;;8.00;;
63217;SDS011;49314;48.278;16.378;2023-04-25T04:02:10;8.77;;;8.25;;
63217;SDS011;49314;48.278;16.378;2023-04-25T04:04:35;10.07;;;9.48;;
63217;SDS011;49314;48.278;16.378;2023-04-25T04:07:01;19.63;;;17.63;;
63217;SDS011;49314;48.278;16.378;2023-04-25T04:09:26;10.07;;;9.30;;
63217;SDS011;49314;48.278;16.378;2023-04-25T04:11:52;8.23;;;7.75;;
63217;SDS011;49314;48.278;16.378;2023-04-25T04:14:18;6.68;;;6.20;;
63217;SDS011;49314;48.278;16.378;2023-04-25T04:16:43;8.80;;;8.30;;
63217;SDS011;49314;48.278;16.378;2023-04-25T04:19:08;8.00;;;7.60;;
63217;SDS011;49314;48.278;16.378;2023-04-25T04:21:33;8.10;;;7.45;;
63217;SDS011;49314;48.278;16.378;2023-04-25T04:23:58;7.65;;;7.25;;
63217;SDS011;49314;48.278;16.378;2023-04-25T04:26:25;7.60;;;7.20;;
63217;SDS011;49314;48.278;16.378;2023-04-25T04:28:51;9.98;;;9.35;;
63217;SDS011;49314;48.278;16.378;2023-04-25T04:31:16;8.02;;;7.53;;
63217;SDS011;49314;48.278;16.378;2023-04-25T04:33:44;7.38;;;6.97;;
63217;SDS011;49314;48.278;16.378;2023-04-25T04:36:09;7.28;;;6.88;;
63217;SDS011;49314;48.278;16.378;2023-04-25T04:38:35;7.47;;;6.78;;
63217;SDS011;49314;48.278;16.378;2023-04-25T04:41:01;8.75;;;8.15;;
63217;SDS011;49314;48.278;16.378;2023-04-25T04:43:27;7.70;;;7.20;;
63217;SDS011;49314;48.278;16.378;2023-04-25T04:45:53;9.52;;;8.93;;
63217;SDS011;49314;48.278;16.378;2023-04-25T04:48:21;6.25;;;5.85;;
63217;SDS011;49314;48.278;16.378;2023-04-25T04:50:46;8.10;;;7.50;;
63217;SDS011;49314;48.278;16.378;2023-04-25T04:53:12;7.97;;;7.38;;
63217;SDS011;49314;48.278;16.378;2023-04-25T04:55:37;6.63;;;6.20;;
63217;SDS011;49314;48.278;16.378;2023-04-25T04:58:03;7.60;;;7.15;;
63217;SDS011;49314;48.278;16.378;2023-04-25T05:00:28;7.30;;;6.80;;
63217;SDS011;49314;48.278;16.378;2023-04-25T05:02:54;7.97;;;7.47;;
63217;SDS011;49314;48.278;16.378;2023-04-25T05:05:20;8.18;;;7.57;;
63217;SDS011;49314;48.278;16.378;2023-04-25T05:07:45;7.30;;;6.88;;
63217;SDS011;49314;48.278;16.378;2023-04-25T05:10:10;8.93;;;8.35;;
63217;SDS011;49314;48.278;16.378;2023-04-25T05:12:35;8.40;;;7.78;;
63217;SDS011;49314;48.278;16.378;2023-04-25T05:15:00;7.72;;;7.22;;
63217;SDS011;49314;48.278;16.378;2023-04-25T05:17:26;7.55;;;7.13;;
63217;SDS011;49314;48.278;16.378;2023-04-25T05:19:51;7.65;;;6.75;;
63217;SDS011;49314;48.278;16.378;2023-04-25T05:22:16;9.52;;;9.00;;
63217;SDS011;49314;48.278;16.378;2023-04-25T05:24:41;9.02;;;8.40;;
63217;SDS011;49314;48.278;16.378;2023-04-25T05:27:07;9.10;;;8.60;;
63217;SDS011;49314;48.278;16.378;2023-04-25T05:29:32;11.20;;;10.52;;
63217;SDS011;49314;48.278;16.378;2023-04-25T05:31:57;9.35;;;8.75;;
63217;SDS011;49314;48.278;16.378;2023-04-25T05:34:22;9.68;;;8.98;;
63217;SDS011;49314;48.278;16.378;2023-04-25T05:36:48;6.35;;;5.88;;
63217;SDS011;49314;48.278;16.378;2023-04-25T05:39:14;8.45;;;7.95;;
63217;SDS011;49314;48.278;16.378;2023-04-25T05:41:40;9.25;;;8.63;;
63217;SDS011;49314;48.278;16.378;2023-04-25T05:44:05;8.93;;;7.65;;
63217;SDS011;49314;48.278;16.378;2023-04-25T05:46:30;7.18;;;6.78;;
63217;SDS011;49314;48.278;16.378;2023-04-25T05:48:55;7.68;;;7.25;;
63217;SDS011;49314;48.278;16.378;2023-04-25T05:51:21;6.70;;;6.13;;
63217;SDS011;49314;48.278;16.378;2023-04-25T05:53:46;6.47;;;6.05;;
63217;SDS011;49314;48.278;16.378;2023-04-25T05:56:11;6.27;;;5.23;;
63217;SDS011;49314;48.278;16.378;2023-04-25T05:58:36;6.43;;;6.03;;
63217;SDS011;49314;48.278;16.378;2023-04-25T06:01:02;6.97;;;6.47;;
63217;SDS011;49314;48.278;16.378;2023-04-25T06:03:27;5.88;;;5.47;;
63217;SDS011;49314;48.278;16.378;2023-04-25T06:05:52;5.90;;;5.53;;
63217;SDS011;49314;48.278;16.378;2023-04-25T06:08:18;6.20;;;5.77;;
63217;SDS011;49314;48.278;16.378;2023-04-25T06:10:43;6.28;;;5.88;;
63217;SDS011;49314;48.278;16.378;2023-04-25T06:13:09;6.00;;;5.50;;
63217;SDS011;49314;48.278;16.378;2023-04-25T06:15:34;5.07;;;4.70;;
63217;SDS011;49314;48.278;16.378;2023-04-25T06:17:59;5.03;;;4.72;;
63217;SDS011;49314;48.278;16.378;2023-04-25T06:20:25;4.32;;;4.03;;
63217;SDS011;49314;48.278;16.378;2023-04-25T06:22:50;4.40;;;4.10;;
63217;SDS011;49314;48.278;16.378;2023-04-25T06:25:16;4.40;;;4.00;;
63217;SDS011;49314;48.278;16.378;2023-04-25T06:27:42;4.20;;;3.70;;
63217;SDS011;49314;48.278;16.378;2023-04-25T06:30:07;3.43;;;3.17;;
63217;SDS011;49314;48.278;16.378;2023-04-25T06:32:32;4.35;;;4.05;;
63217;SDS011;49314;48.278;16.378;2023-04-25T06:34:59;4.18;;;3.88;;
63217;SDS011;49314;48.278;16.378;2023-04-25T06:37:25;4.13;;;3.83;;
63217;SDS011;49314;48.278;16.378;2023-04-25T06:39:51;3.03;;;2.75;;
63217;SDS011;49314;48.278;16.378;2023-04-25T06:42:16;3.95;;;3.65;;
63217;SDS011;49314;48.278;16.378;2023-04-25T06:44:41;3.42;;;3.22;;
63217;SDS011;49314;48.278;16.378;2023-04-25T06:47:06;3.97;;;3.57;;
63217;SDS011;49314;48.278;16.378;2023-04-25T06:49:32;3.50;;;3.30;;
63217;SDS011;49314;48.278;16.378;2023-04-25T06:51:57;3.55;;;2.88;;
63217;SDS011;49314;48.278;16.378;2023-04-25T06:54:22;3.43;;;3.23;;
63217;SDS011;49314;48.278;16.378;2023-04-25T06:56:49;4.22;;;3.58;;
63217;SDS011;49314;48.278;16.378;2023-04-25T06:59:15;4.03;;;3.35;;
63217;SDS011;49314;48.278;16.378;2023-04-25T07:01:40;4.22;;;3.53;;
63217;SDS011;49314;48.278;16.378;2023-04-25T07:04:06;5.57;;;3.77;;
63217;SDS011;49314;48.278;16.378;2023-04-25T07:06:31;3.80;;;3.05;;
63217;SDS011;49314;48.278;16.378;2023-04-25T07:08:56;3.70;;;3.40;;
63217;SDS011;49314;48.278;16.378;2023-04-25T07:11:21;3.70;;;3.50;;
63217;SDS011;49314;48.278;16.378;2023-04-25T07:13:47;3.60;;;3.30;;
63217;SDS011;49314;48.278;16.378;2023-04-25T07:16:12;3.47;;;3.20;;
63217;SDS011;49314;48.278;16.378;2023-04-25T07:18:37;3.63;;;2.93;;
63217;SDS011;49314;48.278;16.378;2023-04-25T07:21:02;3.60;;;3.30;;
63217;SDS011;49314;48.278;16.378;2023-04-25T07:23:28;3.63;;;3.33;;
63217;SDS011;49314;48.278;16.378;2023-04-25T07:25:53;4.68;;;3.45;;
63217;SDS011;49314;48.278;16.378;2023-04-25T07:28:18;4.03;;;3.55;;
63217;SDS011;49314;48.278;16.378;2023-04-25T07:30:43;3.95;;;3.22;;
63217;SDS011;49314;48.278;16.378;2023-04-25T07:33:09;3.73;;;3.27;;
63217;SDS011;49314;48.278;16.378;2023-04-25T07:35:34;4.35;;;3.95;;
63217;SDS011;49314;48.278;16.378;2023-04-25T07:37:59;3.80;;;3.50;;
63217;SDS011;49314;48.278;16.378;2023-04-25T07:40:25;3.88;;;3.47;;
63217;SDS011;49314;48.278;16.378;2023-04-25T07:42:50;4.30;;;3.65;;
63217;SDS011;49314;48.278;16.378;2023-04-25T07:45:15;7.43;;;3.37;;
63217;SDS011;49314;48.278;16.378;2023-04-25T07:47:41;3.30;;;3.10;;
63217;SDS011;49314;48.278;16.378;2023-04-25T07:50:06;4.15;;;3.40;;
63217;SDS011;49314;48.278;16.378;2023-04-25T07:52:32;3.53;;;3.17;;
63217;SDS011;49314;48.278;16.378;2023-04-25T07:54:57;7.03;;;3.23;;
63217;SDS011;49314;48.278;16.378;2023-04-25T07:57:23;3.22;;;3.03;;
63217;SDS011;49314;48.278;16.378;2023-04-25T07:59:49;4.07;;;3.15;;
63217;SDS011;49314;48.278;16.378;2023-04-25T08:02:14;3.73;;;2.53;;
63217;SDS011;49314;48.278;16.378;2023-04-25T08:04:39;4.00;;;2.97;;
63217;SDS011;49314;48.278;16.378;2023-04-25T08:07:05;4.25;;;3.40;;
63217;SDS011;49314;48.278;16.378;2023-04-25T08:09:30;3.10;;;2.90;;
63217;SDS011;49314;48.278;16.378;2023-04-25T08:11:59;2.67;;;2.47;;
63217;SDS011;49314;48.278;16.378;2023-04-25T08:14:25;2.72;;;2.47;;
63217;SDS011;49314;48.278;16.378;2023-04-25T08:16:51;3.33;;;3.03;;
63217;SDS011;49314;48.278;16.378;2023-04-25T08:19:16;2.83;;;2.60;;
63217;SDS011;49314;48.278;16.378;2023-04-25T08:21:41;5.17;;;3.00;;
63217;SDS011;49314;48.278;16.378;2023-04-25T08:24:06;2.80;;;2.43;;
63217;SDS011;49314;48.278;16.378;2023-04-25T08:26:32;3.43;;;2.80;;
63217;SDS011;49314;48.278;16.378;2023-04-25T08:28:57;3.03;;;2.72;;
63217;SDS011;49314;48.278;16.378;2023-04-25T08:31:23;3.93;;;2.97;;
63217;SDS011;49314;48.278;16.378;2023-04-25T08:33:48;3.57;;;2.73;;
63217;SDS011;49314;48.278;16.378;2023-04-25T08:36:14;2.83;;;2.42;;
63217;SDS011;49314;48.278;16.378;2023-04-25T08:38:39;2.88;;;2.67;;
63217;SDS011;49314;48.278;16.378;2023-04-25T08:41:05;2.73;;;2.57;;
63217;SDS011;49314;48.278;16.378;2023-04-25T08:43:31;2.80;;;2.60;;
63217;SDS011;49314;48.278;16.378;2023-04-25T08:45:58;3.30;;;3.00;;
63217;SDS011;49314;48.278;16.378;2023-04-25T08:48:24;3.95;;;3.65;;
63217;SDS011;49314;48.278;16.378;2023-04-25T08:50:52;2.60;;;2.40;;
63217;SDS011;49314;48.278;16.378;2023-04-25T08:56:07;3.33;;;3.08;;
63217;SDS011;49314;48.278;16.378;2023-04-25T08:58:34;3.33;;;3.13;;
63217;SDS011;49314;48.278;16.378;2023-04-25T09:00:59;3.03;;;2.83;;
63217;SDS011;49314;48.278;16.378;2023-04-25T09:03:25;4.22;;;3.30;;
63217;SDS011;49314;48.278;16.378;2023-04-25T09:05:51;3.30;;;2.92;;
63217;SDS011;49314;48.278;16.378;2023-04-25T09:08:16;3.63;;;3.38;;
63217;SDS011;49314;48.278;16.378;2023-04-25T09:10:41;2.95;;;2.75;;
63217;SDS011;49314;48.278;16.378;2023-04-25T09:13:14;3.15;;;2.85;;
63217;SDS011;49314;48.278;16.378;2023-04-25T09:15:49;4.13;;;2.80;;
63217;SDS011;49314;48.278;16.378;2023-04-25T09:18:28;2.55;;;2.35;;
63217;SDS011;49314;48.278;16.378;2023-04-25T09:20:54;2.33;;;2.13;;
63217;SDS011;49314;48.278;16.378;2023-04-25T09:23:20;2.67;;;2.15;;
63217;SDS011;49314;48.278;16.378;2023-04-25T09:25:49;2.75;;;2.55;;
63217;SDS011;49314;48.278;16.378;2023-04-25T09:28:15;2.22;;;2.03;;
63217;SDS011;49314;48.278;16.378;2023-04-25T09:30:41;2.35;;;2.05;;
63217;SDS011;49314;48.278;16.378;2023-04-25T09:33:08;1.77;;;1.67;;
63217;SDS011;49314;48.278;16.378;2023-04-25T09:35:36;2.22;;;2.03;;
63217;SDS011;49314;48.278;16.378;2023-04-25T09:38:06;2.85;;;2.65;;
63217;SDS011;49314;48.278;16.378;2023-04-25T09:40:32;2.63;;;2.42;;
63217;SDS011;49314;48.278;16.378;2023-04-25T09:42:57;2.47;;;2.27;;
63217;SDS011;49314;48.278;16.378;2023-04-25T09:45:24;2.20;;;2.00;;
63217;SDS011;49314;48.278;16.378;2023-04-25T09:47:49;2.50;;;2.30;;
63217;SDS011;49314;48.278;16.378;2023-04-25T09:50:15;2.78;;;2.38;;
63217;SDS011;49314;48.278;16.378;2023-04-25T09:52:41;2.67;;;2.45;;
63217;SDS011;49314;48.278;16.378;2023-04-25T09:55:06;5.10;;;2.90;;
63217;SDS011;49314;48.278;16.378;2023-04-25T09:57:32;7.60;;;3.42;;
63217;SDS011;49314;48.278;16.378;2023-04-25T09:59:57;8.70;;;4.70;;
63217;SDS011;49314;48.278;16.378;2023-04-25T10:02:25;5.95;;;3.88;;
63217;SDS011;49314;48.278;16.378;2023-04-25T10:04:51;5.60;;;3.47;;
63217;SDS011;49314;48.278;16.378;2023-04-25T10:07:17;4.68;;;3.88;;
63217;SDS011;49314;48.278;16.378;2023-04-25T10:09:44;4.05;;;3.85;;
63217;SDS011;49314;48.278;16.378;2023-04-25T10:12:11;5.93;;;4.78;;
63217;SDS011;49314;48.278;16.378;2023-04-25T10:14:37;4.97;;;4.57;;
63217;SDS011;49314;48.278;16.378;2023-04-25T10:17:03;4.97;;;4.55;;
63217;SDS011;49314;48.278;16.378;2023-04-25T10:19:28;4.97;;;4.65;;
63217;SDS011;49314;48.278;16.378;2023-04-25T10:22:07;5.18;;;4.75;;
63217;SDS011;49314;48.278;16.378;2023-04-25T10:24:33;4.57;;;3.65;;
63217;SDS011;49314;48.278;16.378;2023-04-25T10:27:00;3.22;;;2.92;;
63217;SDS011;49314;48.278;16.378;2023-04-25T10:29:26;2.22;;;2.08;;
63217;SDS011;49314;48.278;16.378;2023-04-25T10:31:52;2.17;;;1.90;;
63217;SDS011;49314;48.278;16.378;2023-04-25T10:34:17;2.97;;;1.80;;
63217;SDS011;49314;48.278;16.378;2023-04-25T10:36:43;1.65;;;1.55;;
63217;SDS011;49314;48.278;16.378;2023-04-25T10:39:13;2.00;;;1.75;;
63217;SDS011;49314;48.278;16.378;2023-04-25T10:41:46;1.98;;;1.50;;
63217;SDS011;49314;48.278;16.378;2023-04-25T10:44:13;2.20;;;1.98;;
63217;SDS011;49314;48.278;16.378;2023-04-25T10:46:38;3.72;;;1.40;;
63217;SDS011;49314;48.278;16.378;2023-04-25T10:49:03;1.73;;;1.63;;
63217;SDS011;49314;48.278;16.378;2023-04-25T10:51:29;3.92;;;2.22;;
63217;SDS011;49314;48.278;16.378;2023-04-25T10:54:02;3.08;;;1.70;;
63217;SDS011;49314;48.278;16.378;2023-04-25T10:56:38;2.90;;;1.42;;
63217;SDS011;49314;48.278;16.378;2023-04-25T11:01:39;2.20;;;1.40;;
63217;SDS011;49314;48.278;16.378;2023-04-25T11:04:05;1.77;;;1.60;;
63217;SDS011;49314;48.278;16.378;2023-04-25T11:08:56;1.50;;;1.40;;
63217;SDS011;49314;48.278;16.378;2023-04-25T11:11:22;2.15;;;1.48;;
63217;SDS011;49314;48.278;16.378;2023-04-25T11:13:47;2.23;;;1.70;;
63217;SDS011;49314;48.278;16.378;2023-04-25T11:16:13;4.25;;;1.35;;
63217;SDS011;49314;48.278;16.378;2023-04-25T11:18:42;1.70;;;1.40;;
63217;SDS011;49314;48.278;16.378;2023-04-25T11:21:07;1.70;;;1.60;;
63217;SDS011;49314;48.278;16.378;2023-04-25T11:23:32;3.80;;;1.90;;
63217;SDS011;49314;48.278;16.378;2023-04-25T11:25:58;2.60;;;2.35;;
63217;SDS011;49314;48.278;16.378;2023-04-25T11:28:25;5.55;;;2.58;;
63217;SDS011;49314;48.278;16.378;2023-04-25T11:30:51;2.85;;;2.65;;
63217;SDS011;49314;48.278;16.378;2023-04-25T11:33:17;3.42;;;3.13;;
63217;SDS011;49314;48.278;16.378;2023-04-25T11:35:42;3.60;;;3.35;;
63217;SDS011;49314;48.278;16.378;2023-04-25T11:38:07;2.95;;;2.65;;
63217;SDS011;49314;48.278;16.378;2023-04-25T11:40:33;3.10;;;2.90;;
63217;SDS011;49314;48.278;16.378;2023-04-25T11:42:59;3.17;;;2.97;;
63217;SDS011;49314;48.278;16.378;2023-04-25T11:45:25;5.72;;;3.10;;
63217;SDS011;49314;48.278;16.378;2023-04-25T11:47:51;3.35;;;3.25;;
63217;SDS011;49314;48.278;16.378;2023-04-25T11:50:16;2.67;;;2.47;;
63217;SDS011;49314;48.278;16.378;2023-04-25T11:55:07;3.77;;;3.50;;
63217;SDS011;49314;48.278;16.378;2023-04-25T11:57:33;3.05;;;2.95;;
63217;SDS011;49314;48.278;16.378;2023-04-25T12:00:31;3.75;;;3.53;;
63217;SDS011;49314;48.278;16.378;2023-04-25T12:02:53;2.35;;;2.25;;
63217;SDS011;49314;48.278;16.378;2023-04-25T12:05:19;2.42;;;2.28;;
63217;SDS011;49314;48.278;16.378;2023-04-25T12:07:45;2.95;;;2.75;;
63217;SDS011;49314;48.278;16.378;2023-04-25T12:10:11;2.25;;;2.15;;
63217;SDS011;49314;48.278;16.378;2023-04-25T12:12:37;2.40;;;2.30;;
63217;SDS011;49314;48.278;16.378;2023-04-25T12:15:12;3.00;;;2.30;;
63217;SDS011;49314;48.278;16.378;2023-04-25T12:17:40;3.05;;;1.60;;
63217;SDS011;49314;48.278;16.378;2023-04-25T12:20:08;2.13;;;2.03;;
63217;SDS011;49314;48.278;16.378;2023-04-25T12:22:34;1.88;;;1.40;;
63217;SDS011;49314;48.278;16.378;2023-04-25T12:24:59;2.10;;;1.45;;
63217;SDS011;49314;48.278;16.378;2023-04-25T12:27:25;3.00;;;1.40;;
63217;SDS011;49314;48.278;16.378;2023-04-25T12:29:52;1.13;;;0.95;;
63217;SDS011;49314;48.278;16.378;2023-04-25T12:32:18;1.30;;;1.20;;
63217;SDS011;49314;48.278;16.378;2023-04-25T12:34:43;2.13;;;1.15;;
63217;SDS011;49314;48.278;16.378;2023-04-25T12:37:08;2.93;;;1.53;;
63217;SDS011;49314;48.278;16.378;2023-04-25T12:39:34;1.80;;;1.70;;
63217;SDS011;49314;48.278;16.378;2023-04-25T12:41:59;1.52;;;1.42;;
63217;SDS011;49314;48.278;16.378;2023-04-25T12:44:24;1.65;;;1.55;;
63217;SDS011;49314;48.278;16.378;2023-04-25T12:46:50;2.97;;;1.25;;
63217;SDS011;49314;48.278;16.378;2023-04-25T12:49:15;1.42;;;1.33;;
63217;SDS011;49314;48.278;16.378;2023-04-25T12:51:40;1.10;;;1.10;;
63217;SDS011;49314;48.278;16.378;2023-04-25T12:54:06;3.15;;;1.10;;
63217;SDS011;49314;48.278;16.378;2023-04-25T12:56:33;1.50;;;1.27;;
63217;SDS011;49314;48.278;16.378;2023-04-25T12:58:58;0.98;;;0.90;;
63217;SDS011;49314;48.278;16.378;2023-04-25T13:01:24;1.77;;;0.90;;
63217;SDS011;49314;48.278;16.378;2023-04-25T13:03:50;2.30;;;1.17;;
63217;SDS011;49314;48.278;16.378;2023-04-25T13:06:16;1.15;;;1.02;;
63217;SDS011;49314;48.278;16.378;2023-04-25T13:08:41;1.23;;;1.13;;
63217;SDS011;49314;48.278;16.378;2023-04-25T13:11:07;1.08;;;0.82;;
63217;SDS011;49314;48.278;16.378;2023-04-25T13:13:32;1.90;;;1.10;;
63217;SDS011;49314;48.278;16.378;2023-04-25T13:15:59;1.10;;;0.80;;
63217;SDS011;49314;48.278;16.378;2023-04-25T13:18:25;2.53;;;1.10;;
63217;SDS011;49314;48.278;16.378;2023-04-25T13:20:54;1.10;;;0.82;;
63217;SDS011;49314;48.278;16.378;2023-04-25T13:23:19;1.45;;;0.70;;
63217;SDS011;49314;48.278;16.378;2023-04-25T13:25:45;1.63;;;1.10;;
63217;SDS011;49314;48.278;16.378;2023-04-25T13:28:10;1.60;;;0.70;;
63217;SDS011;49314;48.278;16.378;2023-04-25T13:30:36;1.33;;;1.03;;
63217;SDS011;49314;48.278;16.378;2023-04-25T13:33:02;0.95;;;0.93;;
63217;SDS011;49314;48.278;16.378;2023-04-25T13:35:28;0.68;;;0.68;;
63217;SDS011;49314;48.278;16.378;2023-04-25T13:37:54;1.40;;;1.10;;
63217;SDS011;49314;48.278;16.378;2023-04-25T13:40:19;1.33;;;0.95;;
63217;SDS011;49314;48.278;16.378;2023-04-25T13:42:45;1.35;;;1.10;;
63217;SDS011;49314;48.278;16.378;2023-04-25T13:45:10;1.60;;;1.10;;
63217;SDS011;49314;48.278;16.378;2023-04-25T13:47:36;0.93;;;0.93;;
63217;SDS011;49314;48.278;16.378;2023-04-25T13:50:01;1.13;;;0.90;;
63217;SDS011;49314;48.278;16.378;2023-04-25T13:52:28;1.02;;;0.93;;
63217;SDS011;49314;48.278;16.378;2023-04-25T13:54:53;1.13;;;1.00;;
63217;SDS011;49314;48.278;16.378;2023-04-25T13:57:18;1.17;;;0.90;;
63217;SDS011;49314;48.278;16.378;2023-04-25T13:59:44;1.52;;;0.90;;
63217;SDS011;49314;48.278;16.378;2023-04-25T14:02:10;3.10;;;0.82;;
63217;SDS011;49314;48.278;16.378;2023-04-25T14:04:36;0.80;;;0.80;;
63217;SDS011;49314;48.278;16.378;2023-04-25T14:07:02;2.33;;;1.25;;
63217;SDS011;49314;48.278;16.378;2023-04-25T14:09:27;4.13;;;1.80;;
63217;SDS011;49314;48.278;16.378;2023-04-25T14:11:53;1.58;;;1.48;;
63217;SDS011;49314;48.278;16.378;2023-04-25T14:14:18;1.38;;;1.30;;
63217;SDS011;49314;48.278;16.378;2023-04-25T14:16:44;2.75;;;2.55;;
63217;SDS011;49314;48.278;16.378;2023-04-25T14:19:09;3.05;;;2.53;;
63217;SDS011;49314;48.278;16.378;2023-04-25T14:21:34;2.73;;;2.53;;
63217;SDS011;49314;48.278;16.378;2023-04-25T14:24:00;2.55;;;1.73;;
63217;SDS011;49314;48.278;16.378;2023-04-25T14:26:25;1.40;;;1.30;;
63217;SDS011;49314;48.278;16.378;2023-04-25T14:28:51;2.38;;;2.28;;
63217;SDS011;49314;48.278;16.378;2023-04-25T14:31:16;2.35;;;2.25;;
63217;SDS011;49314;48.278;16.378;2023-04-25T14:33:41;2.67;;;2.53;;
63217;SDS011;49314;48.278;16.378;2023-04-25T14:36:08;2.85;;;2.65;;